Latest Coastal Weather Observations for Lombadina

IDW60701

Issued at 9:43 pm WST Saturday 27 May 2017 (issued every 10 minutes, with the page automatically refreshed every 10 minutes)

About coastal observations | Map of coastal stations | Coastal observations for WA | Marine services | Other Formats
Station Details ID: 503016 Name: LOMBADINA AIRSTRIP Lat: -16.52 Lon: 122.92 Height: 42.0 m
Data from the previous 72 hours. | See also: Recent months for locations in Western Australia
Date/Time
WST
Temp
°C
Wind Pressure Rain since
9am
mm
Weather Cloud Vis
km
Sea
Height
m
Swell
Dir  Spd
kts
Gust
kts
hPa Trend Height
m
Period
s
Dir
27/09:30pm 22.7 SW 3 4 1013.4 - 0.0 - - 10 - - - -
27/09:00pm 23.5 SW 3 5 1013.4 - 0.0 - - 10 - - - -
27/08:30pm 23.2 SW 1 3 1013.3 - 0.0 - - 10 - - - -
27/08:00pm 23.5 SSW 3 4 1013.1 - 0.0 - - 10 - - - -
27/07:30pm 23.4 CALM 0 2 1012.9 - 0.0 - - 10 - - - -
27/07:00pm 23.8 CALM 0 0 1012.6 - 0.0 - - 10 - - - -
27/06:30pm 24.3 CALM 0 1 1012.3 - 0.0 - - 10 - - - -
27/06:00pm 24.9 CALM 0 0 1012.0 - 0.0 - - 10 - - - -
27/05:30pm 26.4 W 1 3 1011.6 - 0.0 - - 10 - - - -
27/05:00pm 28.2 NW 3 4 1011.3 - 0.0 - - 10 - - - -
27/04:30pm 29.1 WNW 4 6 1011.1 - 0.0 - - 10 - - - -
27/04:00pm 30.2 WNW 3 5 1010.9 - 0.0 - - 10 - - - -
27/03:30pm 31.2 NE 3 5 1010.8 - 0.0 - - 10 - - - -
27/03:00pm 31.3 ESE 3 5 1010.7 - 0.0 - - 10 - - - -
27/02:30pm 31.6 E 3 6 1010.7 - 0.0 - - 10 - - - -
27/02:00pm 31.0 E 4 8 1010.9 - 0.0 - - 10 - - - -
27/01:30pm 30.6 ENE 5 9 1011.1 - 0.0 - - 10 - - - -
27/01:00pm 30.8 ENE 6 10 1011.4 - 0.0 - - 10 - - - -
27/12:30pm 30.5 E 5 9 1011.9 - 0.0 - - 10 - - - -
27/12:00pm 30.9 ESE 5 8 1012.3 - 0.0 - - 10 - - - -
27/11:30am 31.2 ESE 4 6 1012.5 - 0.0 - - 10 - - - -
27/11:00am 29.8 SSE 4 8 1012.9 - 0.0 - - 10 - - - -
27/10:30am 28.9 SE 5 9 1013.3 - 0.0 - - 10 - - - -
27/10:00am 28.7 ESE 5 9 1013.7 - 0.0 - - 10 - - - -
27/09:30am 28.3 SE 4 8 1013.9 - 0.0 - - 10 - - - -
27/09:00am 28.3 ESE 4 8 1013.9 - 0.0 - - 10 - - - -
27/08:30am 27.4 ESE 3 5 1013.8 - 0.0 - - 10 - - - -
27/08:00am 26.3 SE 3 4 1013.6 - 0.0 - - 10 - - - -
27/07:30am 24.5 SE 2 4 1013.5 - 0.0 - - 10 - - - -
27/07:00am 21.0 ESE 1 4 1013.4 - 0.0 - - 10 - - - -
27/06:30am 19.2 CALM 0 0 1013.2 - 0.0 - - 10 - - - -
27/06:00am 18.5 CALM 0 0 1012.9 - 0.0 - - 10 - - - -
27/05:30am 19.6 CALM 0 0 1012.6 - 0.0 - - 10 - - - -
27/05:00am 20.6 CALM 0 0 1012.5 - 0.0 - - 10 - - - -
27/04:30am 21.0 CALM 0 2 1012.3 - 0.0 - - 10 - - - -
27/04:00am 21.3 CALM 0 1 1012.0 - 0.0 - - 10 - - - -
27/03:44am 21.6 CALM 0 0 1012.0 - 0.0 - - 10 - - - -
27/03:30am 21.3 SSW 1 2 1012.0 - 0.0 - - 3 - - - -
27/03:00am 21.3 SSW 1 3 1012.0 - 0.0 - - 0.4 - - - -
27/02:30am 21.9 SSW 2 4 1012.0 - 0.0 - - 2 - - - -
27/02:00am 21.8 CALM 0 2 1012.4 - 0.0 - - 2 - - - -
27/01:30am 21.8 SSW 2 3 1012.5 - 0.0 - - 0.4 - - - -
27/01:00am 22.4 CALM 0 2 1012.8 - 0.0 - - 0.5 - - - -
27/12:30am 22.1 CALM 0 2 1012.9 - 0.0 - - 8 - - - -
27/12:00am 22.4 SSW 2 3 1013.1 - 0.0 - - 2 - - - -
 
Date/Time
WST
Temp
°C
Wind Pressure Rain since
9am
mm
Weather Cloud Vis
km
Sea
Height
m
Swell
Dir  Spd
kts
Gust
kts
hPa Trend Height
m
Period
s
Dir
26/11:57pm 22.5 SSW 2 3 1013.1 - 0.0 - - 4 - - - -
26/11:45pm 22.3 SSW 3 4 1013.1 - 0.0 - - 9 - - - -
26/11:30pm 22.8 SSW 1 3 1013.1 - 0.0 - - 4 - - - -
26/11:00pm 22.9 SSW 2 4 1013.3 - 0.0 - - 8 - - - -
26/10:58pm 22.9 SSW 2 4 1013.3 - 0.0 - - 8 - - - -
26/10:33pm 22.8 CALM 0 2 1013.5 - 0.0 - - 4 - - - -
26/10:31pm 23.1 CALM 0 2 1013.4 - 0.0 - - 8 - - - -
26/10:30pm 23.3 CALM 0 2 1013.4 - 0.0 - - 10 - - - -
26/10:12pm 23.0 SW 1 3 1013.6 - 0.0 - - 4 - - - -
26/10:06pm 23.1 SW 1 4 1013.6 - 0.0 - - 10 - - - -
26/10:00pm 23.3 SW 2 4 1013.6 - 0.0 - - 10 - - - -
26/09:46pm 23.1 SW 1 3 1013.6 - 0.0 - - 4 - - - -
26/09:38pm 23.3 SW 1 3 1013.6 - 0.0 - - 10 - - - -
26/09:30pm 23.4 SW 1 3 1013.7 - 0.0 - - 5 - - - -
26/09:20pm 23.2 SW 2 3 1013.6 - 0.0 - - 5 - - - -
26/09:00pm 23.5 SW 1 3 1013.5 - 0.0 - - 10 - - - -
26/08:30pm 23.4 SW 1 3 1013.3 - 0.0 - - 10 - - - -
26/08:00pm 23.6 SW 2 3 1013.0 - 0.0 - - 10 - - - -
26/07:30pm 23.9 SW 2 4 1012.8 - 0.0 - - 10 - - - -
26/07:00pm 24.1 WSW 2 3 1012.5 - 0.0 - - 10 - - - -
26/06:30pm 24.6 WSW 2 3 1012.1 - 0.0 - - 10 - - - -
26/06:00pm 25.5 WSW 2 4 1011.9 - 0.0 - - 10 - - - -
26/05:30pm 26.4 W 2 4 1011.7 - 0.0 - - 10 - - - -
26/05:00pm 27.7 WNW 3 5 1011.4 - 0.0 - - 10 - - - -
26/04:30pm 28.4 WNW 5 7 1011.2 - 0.0 - - 10 - - - -
26/04:00pm 28.8 WNW 5 9 1011.0 - 0.0 - - 10 - - - -
26/03:30pm 29.1 NW 7 10 1010.9 - 0.0 - - 10 - - - -
26/03:00pm 29.1 WNW 6 11 1011.0 - 0.0 - - 10 - - - -
26/02:30pm 29.8 WNW 6 10 1011.0 - 0.0 - Partly cloudy 10 - - - -
26/02:00pm 30.3 WNW 7 11 1011.1 - 0.0 - Partly cloudy 10 - - - -
26/01:30pm 31.0 NW 7 10 1011.3 - 0.0 - Partly cloudy 10 - - - -
26/01:00pm 30.4 NW 7 11 1011.7 - 0.0 - - 10 - - - -
26/12:30pm 30.7 NW 7 11 1011.9 - 0.0 - - 10 - - - -
26/12:00pm 30.5 NW 7 11 1012.5 - 0.0 - - 10 - - - -
26/11:30am 31.0 NW 7 11 1012.7 - 0.0 - - 10 - - - -
26/11:00am 31.0 N 4 10 1012.9 - 0.0 - - 10 - - - -
26/10:30am 30.5 NNE 5 10 1013.3 - 0.0 - - 10 - - - -
26/10:00am 30.0 ENE 5 9 1013.6 - 0.0 - - 10 - - - -
26/09:30am 29.5 ENE 3 6 1013.8 - 0.0 - - 10 - - - -
26/09:00am 28.3 ENE 6 10 1013.9 - - - - 10 - - - -
26/08:30am 27.8 E 5 8 1013.9 - - - - 10 - - - -
26/08:00am 26.1 ESE 4 7 1013.7 - - - - 10 - - - -
26/07:30am 24.8 SE 3 6 1013.4 - - - - 10 - - - -
26/07:00am 21.5 SE 2 4 1013.2 - - - - 10 - - - -
26/06:30am 21.1 ESE 3 4 1012.8 - - - - 10 - - - -
26/06:00am 20.5 ESE 3 5 1012.5 - - - - 10 - - - -
26/05:30am 19.9 E 3 4 1012.1 - - - - 10 - - - -
26/05:00am 19.8 SE 1 2 1011.9 - - - - 10 - - - -
26/04:30am 19.1 CALM 0 2 1012.0 - - - - 10 - - - -
26/04:00am 19.5 CALM 0 0 1011.9 - - - - - - - - -
26/03:30am 20.0 CALM 0 0 1011.9 - - - - - - - - -
26/03:00am 21.1 S 1 3 1011.9 - 0.0 - - - - - - -
26/02:30am 20.7 SSW 3 4 1011.9 - - - - - - - - -
26/02:00am 21.5 SW 2 3 1012.0 - - - - - - - - -
26/01:30am 20.8 SSW 2 5 1012.3 - - - - - - - - -
26/01:00am 20.7 SSW 3 5 1012.6 - - - - - - - - -
26/12:30am 20.3 SSW 2 4 1012.9 - - - - - - - - -
26/12:00am 20.6 SSW 1 3 1012.9 - - - - - - - - -
 
Date/Time
WST
Temp
°C
Wind Pressure Rain since
9am
mm
Weather Cloud Vis
km
Sea
Height
m
Swell
Dir  Spd
kts
Gust
kts
hPa Trend Height
m
Period
s
Dir
25/11:30pm 20.7 SSW 3 4 1013.1 - - - - - - - - -
25/11:00pm 20.8 SW 2 3 1013.3 - - - - - - - - -
25/10:30pm 21.4 WSW 2 3 1013.4 - - - - - - - - -
25/10:00pm 21.6 SSW 2 3 1013.5 - - - - - - - - -
25/09:30pm 21.8 SSW 2 4 1013.6 - - - - - - - - -
25/09:00pm 22.6 SSW 3 5 1013.6 - 0.0 - - - - - - -
25/08:30pm 22.4 SSW 1 3 1013.5 - - - - - - - - -
25/08:00pm 22.3 SSW 2 4 1013.5 - - - - - - - - -
25/07:30pm 22.7 SW 1 3 1013.3 - - - - - - - - -
25/07:00pm 23.2 CALM 0 2 1012.9 - - - - - - - - -
25/06:30pm 23.5 WSW 1 2 1012.6 - - - - - - - - -
25/06:00pm 24.5 CALM 0 0 1012.1 - - - - - - - - -
25/05:30pm 25.9 CALM 0 2 1011.8 - - - - - - - - -
25/05:00pm 28.6 NNW 2 3 1011.4 - - - - 10 - - - -
25/04:30pm 29.9 NW 3 5 1011.2 - - - - 10 - - - -
25/04:00pm 32.4 E 1 3 1011.0 - - - - 10 - - - -
25/03:30pm 33.0 NE 2 5 1011.0 - - - - 10 - - - -
25/03:00pm 32.8 E 3 5 1010.8 - - - - 10 - - - -
25/02:30pm 32.8 ESE 3 6 1010.7 - - - - 10 - - - -
25/02:00pm 32.2 ESE 5 7 1010.8 - - - - 10 - - - -
25/08:30am 28.3 ESE 2 5 1013.6 - 0.0 - - 10 - - - -
25/08:00am 26.8 SE 3 4 1013.6 - 0.0 - - 10 - - - -
25/07:30am 25.5 SE 3 5 1013.4 - 0.0 - - 10 - - - -
25/07:00am 23.9 SE 2 4 1013.3 - 0.0 - - 10 - - - -
25/06:30am 23.0 ESE 3 6 1013.0 - 0.0 - - 10 - - - -
25/06:00am 23.1 ESE 4 6 1012.7 - 0.0 - - 10 - - - -
25/05:30am 20.5 SE 3 4 1012.4 - 0.0 - - 10 - - - -
25/05:00am 20.2 E 3 4 1012.1 - 0.0 - - 10 - - - -
25/04:30am 20.4 E 2 3 1012.0 - 0.0 - - 10 - - - -
25/04:00am 21.6 ESE 3 8 1012.1 - 0.0 - - 10 - - - -
25/03:30am 21.3 WSW 1 3 1011.9 - 0.0 - - 10 - - - -
25/03:00am 21.8 SSE 1 3 1012.0 - 0.0 - - 10 - - - -
25/02:30am 22.3 SW 3 4 1011.9 - 0.0 - - 10 - - - -
25/02:00am 22.8 SW 3 4 1012.1 - 0.0 - - 10 - - - -
25/01:30am 23.0 SW 3 4 1012.3 - 0.0 - - 10 - - - -
25/01:00am 23.6 SW 3 5 1012.5 - 0.0 - - 10 - - - -
25/12:30am 23.7 SW 4 7 1012.7 - 0.0 - - 10 - - - -
25/12:00am 23.8 SW 3 5 1012.9 - 0.0 - - 10 - - - -
 
Date/Time
WST
Temp
°C
Wind Pressure Rain since
9am
mm
Weather Cloud Vis
km
Sea
Height
m
Swell
Dir  Spd
kts
Gust
kts
hPa Trend Height
m
Period
s
Dir
24/11:30pm 23.5 SW 3 5 1013.0 - 0.0 - - 10 - - - -
24/11:00pm 23.3 SW 3 5 1013.2 - 0.0 - - 10 - - - -
24/10:30pm 23.9 SW 4 6 1013.6 - 0.0 - - 10 - - - -
24/10:00pm 23.5 SW 3 4 1013.8 - 0.0 - - 10 - - - -

Other Formats:

Comma delimited format used in spreadsheet applications
http://www.bom.gov.au/fwo/IDW60701/IDW60701.99206.axf

JavaScript Object Notation format (JSON) in row-major order
http://www.bom.gov.au/fwo/IDW60701/IDW60701.99206.json